sensor_id;sensor_type;location;lat;lon;timestamp;pressure;altitude;pressure_sealevel;temperature;humidity
17072;BME280;7731;50.720;6.912;2023-01-09T00:02:08;98039.38;;;7.19;100.00
17072;BME280;7731;50.720;6.912;2023-01-09T00:04:39;98034.47;;;7.16;100.00
17072;BME280;7731;50.720;6.912;2023-01-09T00:07:10;98029.31;;;6.92;100.00
17072;BME280;7731;50.720;6.912;2023-01-09T00:09:40;98024.75;;;7.21;100.00
17072;BME280;7731;50.720;6.912;2023-01-09T00:12:10;98025.81;;;7.06;100.00
17072;BME280;7731;50.720;6.912;2023-01-09T00:14:42;98028.28;;;6.94;100.00
17072;BME280;7731;50.720;6.912;2023-01-09T00:17:15;98033.09;;;6.99;100.00
17072;BME280;7731;50.720;6.912;2023-01-09T00:19:46;98030.91;;;7.06;100.00
17072;BME280;7731;50.720;6.912;2023-01-09T00:22:16;98034.59;;;7.02;100.00
17072;BME280;7731;50.720;6.912;2023-01-09T00:24:47;98033.97;;;7.11;100.00
17072;BME280;7731;50.720;6.912;2023-01-09T00:27:17;98031.81;;;7.18;100.00
17072;BME280;7731;50.720;6.912;2023-01-09T00:29:47;98031.50;;;7.09;100.00
17072;BME280;7731;50.720;6.912;2023-01-09T00:32:20;98035.00;;;7.08;100.00
17072;BME280;7731;50.720;6.912;2023-01-09T00:34:50;98040.00;;;7.10;100.00
17072;BME280;7731;50.720;6.912;2023-01-09T00:37:20;98032.97;;;7.01;100.00
17072;BME280;7731;50.720;6.912;2023-01-09T00:39:50;98038.94;;;6.88;100.00
17072;BME280;7731;50.720;6.912;2023-01-09T00:42:25;98037.06;;;6.90;100.00
17072;BME280;7731;50.720;6.912;2023-01-09T00:45:04;98039.13;;;6.85;100.00
17072;BME280;7731;50.720;6.912;2023-01-09T00:47:44;98042.00;;;6.81;100.00
17072;BME280;7731;50.720;6.912;2023-01-09T00:50:23;98045.91;;;6.60;100.00
17072;BME280;7731;50.720;6.912;2023-01-09T00:53:00;98041.78;;;6.71;100.00
17072;BME280;7731;50.720;6.912;2023-01-09T00:55:33;98051.41;;;6.54;100.00
17072;BME280;7731;50.720;6.912;2023-01-09T00:58:05;98056.41;;;6.56;100.00
17072;BME280;7731;50.720;6.912;2023-01-09T01:00:36;98065.78;;;6.81;100.00
17072;BME280;7731;50.720;6.912;2023-01-09T01:03:09;98060.47;;;6.71;100.00
17072;BME280;7731;50.720;6.912;2023-01-09T01:05:39;98062.00;;;6.61;100.00
17072;BME280;7731;50.720;6.912;2023-01-09T01:08:21;98059.25;;;6.90;100.00
17072;BME280;7731;50.720;6.912;2023-01-09T01:10:52;98064.03;;;6.69;100.00
17072;BME280;7731;50.720;6.912;2023-01-09T01:13:22;98062.59;;;6.65;100.00
17072;BME280;7731;50.720;6.912;2023-01-09T01:15:52;98068.94;;;6.46;100.00
17072;BME280;7731;50.720;6.912;2023-01-09T01:18:36;98069.53;;;6.37;100.00
17072;BME280;7731;50.720;6.912;2023-01-09T01:21:08;98073.03;;;6.61;100.00
17072;BME280;7731;50.720;6.912;2023-01-09T01:23:39;98076.50;;;6.60;100.00
17072;BME280;7731;50.720;6.912;2023-01-09T01:26:12;98073.22;;;6.58;100.00
17072;BME280;7731;50.720;6.912;2023-01-09T01:28:43;98077.91;;;6.65;100.00
17072;BME280;7731;50.720;6.912;2023-01-09T01:31:18;98066.09;;;6.64;100.00
17072;BME280;7731;50.720;6.912;2023-01-09T01:33:51;98070.97;;;6.41;100.00
17072;BME280;7731;50.720;6.912;2023-01-09T01:36:21;98070.28;;;6.39;100.00
17072;BME280;7731;50.720;6.912;2023-01-09T01:38:51;98073.59;;;6.26;100.00
17072;BME280;7731;50.720;6.912;2023-01-09T01:41:21;98075.03;;;6.31;100.00
17072;BME280;7731;50.720;6.912;2023-01-09T01:44:02;98075.22;;;6.15;100.00
17072;BME280;7731;50.720;6.912;2023-01-09T01:46:33;98068.19;;;6.18;100.00
17072;BME280;7731;50.720;6.912;2023-01-09T01:49:10;98075.53;;;6.23;100.00
17072;BME280;7731;50.720;6.912;2023-01-09T01:51:45;98070.84;;;6.30;100.00
17072;BME280;7731;50.720;6.912;2023-01-09T01:54:24;98075.28;;;6.53;100.00
17072;BME280;7731;50.720;6.912;2023-01-09T01:56:57;98083.44;;;6.46;100.00
17072;BME280;7731;50.720;6.912;2023-01-09T01:59:33;98083.13;;;6.50;100.00
17072;BME280;7731;50.720;6.912;2023-01-09T02:02:07;98084.13;;;6.48;100.00
17072;BME280;7731;50.720;6.912;2023-01-09T02:04:40;98076.19;;;6.39;100.00
17072;BME280;7731;50.720;6.912;2023-01-09T02:07:10;98084.84;;;6.37;100.00
17072;BME280;7731;50.720;6.912;2023-01-09T02:09:41;98092.28;;;6.40;100.00
17072;BME280;7731;50.720;6.912;2023-01-09T02:12:20;98091.72;;;6.09;100.00
17072;BME280;7731;50.720;6.912;2023-01-09T02:14:57;98090.97;;;6.34;100.00
17072;BME280;7731;50.720;6.912;2023-01-09T02:18:16;98107.63;;;6.13;100.00
17072;BME280;7731;50.720;6.912;2023-01-09T02:21:05;98107.78;;;5.97;100.00
17072;BME280;7731;50.720;6.912;2023-01-09T02:24:10;98103.84;;;5.91;100.00
17072;BME280;7731;50.720;6.912;2023-01-09T02:27:04;98104.53;;;5.80;100.00
17072;BME280;7731;50.720;6.912;2023-01-09T02:33:27;98113.22;;;5.78;100.00
17072;BME280;7731;50.720;6.912;2023-01-09T02:36:23;98108.34;;;5.87;100.00
17072;BME280;7731;50.720;6.912;2023-01-09T02:39:09;98112.81;;;5.84;100.00
17072;BME280;7731;50.720;6.912;2023-01-09T02:41:52;98110.00;;;5.74;100.00
17072;BME280;7731;50.720;6.912;2023-01-09T02:44:27;98109.50;;;5.69;100.00
17072;BME280;7731;50.720;6.912;2023-01-09T02:47:04;98119.25;;;5.89;100.00
17072;BME280;7731;50.720;6.912;2023-01-09T02:49:49;98124.97;;;5.66;100.00
17072;BME280;7731;50.720;6.912;2023-01-09T02:52:36;98124.72;;;5.42;100.00
17072;BME280;7731;50.720;6.912;2023-01-09T02:55:20;98130.09;;;5.37;100.00
17072;BME280;7731;50.720;6.912;2023-01-09T02:58:06;98135.75;;;5.42;100.00
17072;BME280;7731;50.720;6.912;2023-01-09T03:00:48;98137.94;;;5.48;100.00
17072;BME280;7731;50.720;6.912;2023-01-09T03:03:33;98130.09;;;5.37;100.00
17072;BME280;7731;50.720;6.912;2023-01-09T03:06:18;98142.31;;;5.32;100.00
17072;BME280;7731;50.720;6.912;2023-01-09T03:08:54;98135.97;;;5.66;100.00
17072;BME280;7731;50.720;6.912;2023-01-09T03:11:31;98136.63;;;5.70;100.00
17072;BME280;7731;50.720;6.912;2023-01-09T03:14:09;98140.78;;;5.71;100.00
17072;BME280;7731;50.720;6.912;2023-01-09T03:16:44;98139.69;;;5.75;100.00
17072;BME280;7731;50.720;6.912;2023-01-09T03:19:20;98142.34;;;5.73;100.00
17072;BME280;7731;50.720;6.912;2023-01-09T03:21:54;98138.47;;;5.53;100.00
17072;BME280;7731;50.720;6.912;2023-01-09T03:24:26;98143.91;;;5.62;100.00
17072;BME280;7731;50.720;6.912;2023-01-09T03:26:57;98146.81;;;5.55;100.00
17072;BME280;7731;50.720;6.912;2023-01-09T03:29:27;98149.00;;;5.62;100.00
17072;BME280;7731;50.720;6.912;2023-01-09T03:32:00;98154.34;;;5.71;100.00
17072;BME280;7731;50.720;6.912;2023-01-09T03:34:33;98171.38;;;5.57;100.00
17072;BME280;7731;50.720;6.912;2023-01-09T03:37:06;98158.91;;;5.66;100.00
17072;BME280;7731;50.720;6.912;2023-01-09T03:39:36;98169.19;;;5.65;100.00
17072;BME280;7731;50.720;6.912;2023-01-09T03:42:06;98179.50;;;5.49;100.00
17072;BME280;7731;50.720;6.912;2023-01-09T03:44:37;98180.13;;;5.52;100.00
17072;BME280;7731;50.720;6.912;2023-01-09T03:47:07;98176.22;;;5.47;100.00
17072;BME280;7731;50.720;6.912;2023-01-09T03:49:38;98174.47;;;5.62;100.00
17072;BME280;7731;50.720;6.912;2023-01-09T03:52:12;98177.38;;;5.55;100.00
17072;BME280;7731;50.720;6.912;2023-01-09T03:54:42;98177.94;;;5.46;100.00
17072;BME280;7731;50.720;6.912;2023-01-09T03:57:12;98178.13;;;5.58;100.00
17072;BME280;7731;50.720;6.912;2023-01-09T03:59:42;98178.31;;;5.54;100.00
17072;BME280;7731;50.720;6.912;2023-01-09T04:02:17;98190.41;;;5.36;100.00
17072;BME280;7731;50.720;6.912;2023-01-09T04:04:47;98192.34;;;5.33;100.00
17072;BME280;7731;50.720;6.912;2023-01-09T04:07:20;98193.41;;;5.29;100.00
17072;BME280;7731;50.720;6.912;2023-01-09T04:09:51;98191.13;;;5.24;100.00
17072;BME280;7731;50.720;6.912;2023-01-09T04:12:21;98193.94;;;5.19;100.00
17072;BME280;7731;50.720;6.912;2023-01-09T04:14:52;98186.00;;;5.10;100.00
17072;BME280;7731;50.720;6.912;2023-01-09T04:17:22;98194.31;;;5.13;100.00
17072;BME280;7731;50.720;6.912;2023-01-09T04:19:54;98200.75;;;5.05;100.00
17072;BME280;7731;50.720;6.912;2023-01-09T04:22:27;98194.78;;;4.75;100.00
17072;BME280;7731;50.720;6.912;2023-01-09T04:24:58;98202.69;;;4.71;100.00
17072;BME280;7731;50.720;6.912;2023-01-09T04:27:28;98203.00;;;4.95;100.00
17072;BME280;7731;50.720;6.912;2023-01-09T04:29:58;98205.47;;;4.66;100.00
17072;BME280;7731;50.720;6.912;2023-01-09T04:32:28;98218.56;;;4.74;100.00
17072;BME280;7731;50.720;6.912;2023-01-09T04:34:58;98221.88;;;4.76;100.00
17072;BME280;7731;50.720;6.912;2023-01-09T04:37:31;98229.72;;;4.88;100.00
17072;BME280;7731;50.720;6.912;2023-01-09T04:40:04;98233.47;;;4.96;100.00
17072;BME280;7731;50.720;6.912;2023-01-09T04:42:36;98249.28;;;5.16;100.00
17072;BME280;7731;50.720;6.912;2023-01-09T04:45:09;98251.56;;;5.21;100.00
17072;BME280;7731;50.720;6.912;2023-01-09T04:47:42;98254.88;;;5.23;100.00
17072;BME280;7731;50.720;6.912;2023-01-09T04:50:15;98247.22;;;5.23;100.00
17072;BME280;7731;50.720;6.912;2023-01-09T04:52:47;98242.31;;;5.34;100.00
17072;BME280;7731;50.720;6.912;2023-01-09T04:55:17;98240.72;;;5.33;100.00
17072;BME280;7731;50.720;6.912;2023-01-09T04:57:48;98240.22;;;5.69;100.00
17072;BME280;7731;50.720;6.912;2023-01-09T05:00:18;98243.44;;;5.73;100.00
17072;BME280;7731;50.720;6.912;2023-01-09T05:02:49;98244.06;;;5.77;100.00
17072;BME280;7731;50.720;6.912;2023-01-09T05:05:19;98249.09;;;5.64;100.00
17072;BME280;7731;50.720;6.912;2023-01-09T05:07:52;98243.59;;;5.99;100.00
17072;BME280;7731;50.720;6.912;2023-01-09T05:10:22;98249.97;;;6.06;100.00
17072;BME280;7731;50.720;6.912;2023-01-09T05:12:52;98248.59;;;5.86;100.00
17072;BME280;7731;50.720;6.912;2023-01-09T05:15:22;98247.97;;;5.97;100.00
17072;BME280;7731;50.720;6.912;2023-01-09T05:17:54;98235.19;;;6.11;100.00
17072;BME280;7731;50.720;6.912;2023-01-09T05:20:24;98237.19;;;6.20;100.00
17072;BME280;7731;50.720;6.912;2023-01-09T05:22:57;98248.50;;;6.02;100.00
17072;BME280;7731;50.720;6.912;2023-01-09T05:25:27;98251.56;;;6.21;100.00
17072;BME280;7731;50.720;6.912;2023-01-09T05:27:57;98242.41;;;5.90;100.00
17072;BME280;7731;50.720;6.912;2023-01-09T05:30:27;98245.41;;;6.11;100.00
17072;BME280;7731;50.720;6.912;2023-01-09T05:32:58;98248.03;;;6.24;100.00
17072;BME280;7731;50.720;6.912;2023-01-09T05:35:28;98250.47;;;6.25;100.00
17072;BME280;7731;50.720;6.912;2023-01-09T05:38:01;98250.94;;;6.18;100.00
17072;BME280;7731;50.720;6.912;2023-01-09T05:40:34;98251.38;;;6.39;100.00
17072;BME280;7731;50.720;6.912;2023-01-09T05:43:07;98256.34;;;6.13;100.00
17072;BME280;7731;50.720;6.912;2023-01-09T05:45:37;98268.91;;;6.02;100.00
17072;BME280;7731;50.720;6.912;2023-01-09T05:48:08;98265.13;;;6.22;100.00
17072;BME280;7731;50.720;6.912;2023-01-09T05:50:38;98265.22;;;6.20;100.00
17072;BME280;7731;50.720;6.912;2023-01-09T05:53:10;98264.41;;;6.20;100.00
17072;BME280;7731;50.720;6.912;2023-01-09T05:55:40;98254.03;;;6.23;100.00
17072;BME280;7731;50.720;6.912;2023-01-09T05:58:11;98259.31;;;6.20;100.00
17072;BME280;7731;50.720;6.912;2023-01-09T06:00:41;98255.56;;;6.25;100.00
17072;BME280;7731;50.720;6.912;2023-01-09T06:03:11;98249.31;;;6.44;100.00
17072;BME280;7731;50.720;6.912;2023-01-09T06:05:42;98251.28;;;6.26;100.00
17072;BME280;7731;50.720;6.912;2023-01-09T06:08:14;98247.16;;;6.38;100.00
17072;BME280;7731;50.720;6.912;2023-01-09T06:10:45;98260.50;;;6.29;100.00
17072;BME280;7731;50.720;6.912;2023-01-09T06:13:15;98265.06;;;6.09;100.00
17072;BME280;7731;50.720;6.912;2023-01-09T06:15:47;98265.97;;;6.22;100.00
17072;BME280;7731;50.720;6.912;2023-01-09T06:18:17;98270.69;;;6.29;100.00
17072;BME280;7731;50.720;6.912;2023-01-09T06:20:47;98273.16;;;6.30;100.00
17072;BME280;7731;50.720;6.912;2023-01-09T06:23:20;98263.94;;;6.28;100.00
17072;BME280;7731;50.720;6.912;2023-01-09T06:25:50;98286.88;;;6.28;100.00
17072;BME280;7731;50.720;6.912;2023-01-09T06:28:20;98283.69;;;6.38;100.00
17072;BME280;7731;50.720;6.912;2023-01-09T06:30:51;98279.56;;;6.50;100.00
17072;BME280;7731;50.720;6.912;2023-01-09T06:33:21;98280.13;;;6.41;100.00
17072;BME280;7731;50.720;6.912;2023-01-09T06:35:51;98281.41;;;6.48;100.00
17072;BME280;7731;50.720;6.912;2023-01-09T06:38:24;98289.38;;;6.56;100.00
17072;BME280;7731;50.720;6.912;2023-01-09T06:40:54;98292.25;;;6.65;100.00
17072;BME280;7731;50.720;6.912;2023-01-09T06:43:24;98282.44;;;6.58;100.00
17072;BME280;7731;50.720;6.912;2023-01-09T06:45:54;98284.97;;;6.58;100.00
17072;BME280;7731;50.720;6.912;2023-01-09T06:48:24;98291.22;;;6.54;100.00
17072;BME280;7731;50.720;6.912;2023-01-09T06:50:57;98292.06;;;6.68;100.00
17072;BME280;7731;50.720;6.912;2023-01-09T06:53:30;98294.50;;;6.69;100.00
17072;BME280;7731;50.720;6.912;2023-01-09T06:56:01;98297.81;;;6.71;100.00
17072;BME280;7731;50.720;6.912;2023-01-09T06:58:31;98293.91;;;6.66;100.00
17072;BME280;7731;50.720;6.912;2023-01-09T07:01:01;98293.09;;;6.65;100.00
17072;BME280;7731;50.720;6.912;2023-01-09T07:03:32;98297.53;;;6.61;100.00
17072;BME280;7731;50.720;6.912;2023-01-09T07:06:02;98294.13;;;6.75;100.00
17072;BME280;7731;50.720;6.912;2023-01-09T07:08:35;98298.28;;;6.64;100.00
17072;BME280;7731;50.720;6.912;2023-01-09T07:11:05;98298.28;;;6.64;100.00
17072;BME280;7731;50.720;6.912;2023-01-09T07:13:35;98294.66;;;6.53;100.00
17072;BME280;7731;50.720;6.912;2023-01-09T07:16:07;98290.66;;;6.49;100.00
17072;BME280;7731;50.720;6.912;2023-01-09T07:18:37;98293.75;;;6.54;100.00
17072;BME280;7731;50.720;6.912;2023-01-09T07:21:10;98288.38;;;6.59;100.00
17072;BME280;7731;50.720;6.912;2023-01-09T07:23:43;98289.00;;;6.63;100.00
17072;BME280;7731;50.720;6.912;2023-01-09T07:26:13;98296.59;;;6.77;100.00
17072;BME280;7731;50.720;6.912;2023-01-09T07:28:43;98297.75;;;6.58;100.00
17072;BME280;7731;50.720;6.912;2023-01-09T07:31:13;98294.66;;;6.53;100.00
17072;BME280;7731;50.720;6.912;2023-01-09T07:33:44;98299.78;;;6.53;100.00
17072;BME280;7731;50.720;6.912;2023-01-09T07:36:14;98299.19;;;6.63;100.00
17072;BME280;7731;50.720;6.912;2023-01-09T07:38:47;98309.31;;;6.64;100.00
17072;BME280;7731;50.720;6.912;2023-01-09T07:41:17;98302.84;;;6.58;100.00
17072;BME280;7731;50.720;6.912;2023-01-09T07:43:47;98306.94;;;6.61;100.00
17072;BME280;7731;50.720;6.912;2023-01-09T07:46:17;98314.50;;;6.63;100.00
17072;BME280;7731;50.720;6.912;2023-01-09T07:48:48;98318.91;;;6.60;100.00
17072;BME280;7731;50.720;6.912;2023-01-09T07:51:19;98313.50;;;6.65;100.00
17072;BME280;7731;50.720;6.912;2023-01-09T07:53:54;98317.63;;;6.81;100.00
17072;BME280;7731;50.720;6.912;2023-01-09T07:56:24;98314.59;;;6.88;100.00
17072;BME280;7731;50.720;6.912;2023-01-09T07:58:55;98319.13;;;6.97;100.00
17072;BME280;7731;50.720;6.912;2023-01-09T08:01:25;98322.19;;;7.03;100.00
17072;BME280;7731;50.720;6.912;2023-01-09T08:03:55;98321.41;;;7.15;100.00
17072;BME280;7731;50.720;6.912;2023-01-09T08:06:25;98332.31;;;7.04;100.00
17072;BME280;7731;50.720;6.912;2023-01-09T08:08:59;98336.09;;;7.11;100.00
17072;BME280;7731;50.720;6.912;2023-01-09T08:11:29;98337.31;;;7.06;100.00
17072;BME280;7731;50.720;6.912;2023-01-09T08:13:59;98345.50;;;7.11;100.00
17072;BME280;7731;50.720;6.912;2023-01-09T08:16:29;98346.81;;;7.04;100.00
17072;BME280;7731;50.720;6.912;2023-01-09T08:18:59;98335.72;;;7.18;100.00
17072;BME280;7731;50.720;6.912;2023-01-09T08:21:29;98343.56;;;7.14;100.00
17072;BME280;7731;50.720;6.912;2023-01-09T08:24:02;98341.31;;;7.10;100.00
17072;BME280;7731;50.720;6.912;2023-01-09T08:26:32;98346.94;;;7.15;100.00
17072;BME280;7731;50.720;6.912;2023-01-09T08:29:02;98344.28;;;7.17;100.00
17072;BME280;7731;50.720;6.912;2023-01-09T08:31:33;98352.94;;;7.14;100.00
17072;BME280;7731;50.720;6.912;2023-01-09T08:34:05;98350.19;;;7.17;100.00
17072;BME280;7731;50.720;6.912;2023-01-09T08:36:35;98355.25;;;7.31;100.00
17072;BME280;7731;50.720;6.912;2023-01-09T08:39:08;98352.75;;;7.57;100.00
17072;BME280;7731;50.720;6.912;2023-01-09T08:41:38;98359.50;;;7.84;100.00
17072;BME280;7731;50.720;6.912;2023-01-09T08:44:21;98354.06;;;8.01;99.51
17072;BME280;7731;50.720;6.912;2023-01-09T08:47:04;98351.09;;;8.20;99.09
17072;BME280;7731;50.720;6.912;2023-01-09T08:49:37;98342.66;;;8.18;96.86
17072;BME280;7731;50.720;6.912;2023-01-09T08:52:07;98356.38;;;8.30;97.65
17072;BME280;7731;50.720;6.912;2023-01-09T08:54:42;98351.75;;;8.35;97.33
17072;BME280;7731;50.720;6.912;2023-01-09T08:57:12;98341.59;;;8.60;95.46
17072;BME280;7731;50.720;6.912;2023-01-09T08:59:42;98355.22;;;8.60;95.36
17072;BME280;7731;50.720;6.912;2023-01-09T09:02:13;98351.28;;;8.67;94.02
17072;BME280;7731;50.720;6.912;2023-01-09T09:04:43;98353.75;;;8.93;93.21
17072;BME280;7731;50.720;6.912;2023-01-09T09:07:14;98356.31;;;9.17;90.66
17072;BME280;7731;50.720;6.912;2023-01-09T09:09:46;98357.03;;;9.66;87.51
17072;BME280;7731;50.720;6.912;2023-01-09T09:12:17;98356.91;;;10.24;84.48
17072;BME280;7731;50.720;6.912;2023-01-09T09:14:47;98355.81;;;11.37;76.41
17072;BME280;7731;50.720;6.912;2023-01-09T09:17:31;98356.28;;;12.85;69.15
17072;BME280;7731;50.720;6.912;2023-01-09T09:20:01;98350.44;;;14.36;59.08
17072;BME280;7731;50.720;6.912;2023-01-09T09:22:31;98350.16;;;14.39;56.20
17072;BME280;7731;50.720;6.912;2023-01-09T09:25:05;98359.81;;;13.72;60.08
17072;BME280;7731;50.720;6.912;2023-01-09T09:27:36;98354.16;;;15.60;54.46
17072;BME280;7731;50.720;6.912;2023-01-09T09:30:08;98371.78;;;14.66;55.59
17072;BME280;7731;50.720;6.912;2023-01-09T09:32:39;98375.72;;;14.05;57.67
17072;BME280;7731;50.720;6.912;2023-01-09T09:35:10;98374.03;;;13.86;57.73
17072;BME280;7731;50.720;6.912;2023-01-09T09:37:41;98379.47;;;11.94;66.96
17072;BME280;7731;50.720;6.912;2023-01-09T09:40:26;98384.72;;;11.71;68.09
17072;BME280;7731;50.720;6.912;2023-01-09T09:43:27;98397.69;;;10.95;73.09
17072;BME280;7731;50.720;6.912;2023-01-09T09:46:27;98399.75;;;11.87;71.23
17072;BME280;7731;50.720;6.912;2023-01-09T09:49:10;98404.81;;;11.35;72.03
17072;BME280;7731;50.720;6.912;2023-01-09T09:52:07;98420.97;;;10.71;74.63
17072;BME280;7731;50.720;6.912;2023-01-09T09:54:48;98416.34;;;10.42;74.30
17072;BME280;7731;50.720;6.912;2023-01-09T09:57:33;98423.50;;;9.92;79.68
17072;BME280;7731;50.720;6.912;2023-01-09T10:00:15;98424.41;;;9.79;80.42
17072;BME280;7731;50.720;6.912;2023-01-09T10:02:51;98427.00;;;9.20;83.72
17072;BME280;7731;50.720;6.912;2023-01-09T10:05:28;98423.25;;;9.13;84.66
17072;BME280;7731;50.720;6.912;2023-01-09T10:08:09;98427.31;;;9.15;85.34
17072;BME280;7731;50.720;6.912;2023-01-09T10:10:51;98425.66;;;9.38;84.82
17072;BME280;7731;50.720;6.912;2023-01-09T10:13:24;98433.84;;;9.79;80.71
17072;BME280;7731;50.720;6.912;2023-01-09T10:16:19;98422.63;;;11.48;71.61
17072;BME280;7731;50.720;6.912;2023-01-09T10:19:08;98417.19;;;11.63;67.42
17072;BME280;7731;50.720;6.912;2023-01-09T10:21:53;98428.56;;;10.72;73.24
17072;BME280;7731;50.720;6.912;2023-01-09T10:24:51;98430.94;;;10.42;76.98
17072;BME280;7731;50.720;6.912;2023-01-09T10:27:39;98435.09;;;10.20;77.14
17072;BME280;7731;50.720;6.912;2023-01-09T10:30:31;98424.59;;;9.54;82.32
17072;BME280;7731;50.720;6.912;2023-01-09T10:33:18;98423.66;;;9.30;82.03
17072;BME280;7731;50.720;6.912;2023-01-09T10:36:20;98419.31;;;8.96;85.00
17072;BME280;7731;50.720;6.912;2023-01-09T10:39:00;98428.94;;;8.92;86.68
17072;BME280;7731;50.720;6.912;2023-01-09T10:41:37;98431.50;;;8.55;90.03
17072;BME280;7731;50.720;6.912;2023-01-09T10:44:19;98424.72;;;8.67;90.30
17072;BME280;7731;50.720;6.912;2023-01-09T10:46:55;98421.03;;;8.58;92.86
17072;BME280;7731;50.720;6.912;2023-01-09T10:49:27;98418.56;;;9.06;90.33
17072;BME280;7731;50.720;6.912;2023-01-09T10:52:09;98415.25;;;9.04;89.18
17072;BME280;7731;50.720;6.912;2023-01-09T10:54:54;98427.22;;;8.55;89.41
17072;BME280;7731;50.720;6.912;2023-01-09T10:57:44;98423.91;;;8.40;90.13
17072;BME280;7731;50.720;6.912;2023-01-09T11:00:20;98425.56;;;8.54;91.53
17072;BME280;7731;50.720;6.912;2023-01-09T11:02:54;98430.09;;;8.51;91.65
17072;BME280;7731;50.720;6.912;2023-01-09T11:05:27;98434.38;;;8.63;90.43
17072;BME280;7731;50.720;6.912;2023-01-09T11:08:05;98436.09;;;8.63;90.43
17072;BME280;7731;50.720;6.912;2023-01-09T11:10:46;98427.38;;;9.02;87.38
17072;BME280;7731;50.720;6.912;2023-01-09T11:13:20;98432.53;;;9.14;87.25
17072;BME280;7731;50.720;6.912;2023-01-09T11:16:06;98426.88;;;9.21;86.82
17072;BME280;7731;50.720;6.912;2023-01-09T11:18:48;98426.81;;;8.86;88.30
17072;BME280;7731;50.720;6.912;2023-01-09T11:21:33;98433.66;;;9.58;84.67
17072;BME280;7731;50.720;6.912;2023-01-09T11:24:27;98439.59;;;8.86;88.47
17072;BME280;7731;50.720;6.912;2023-01-09T11:27:17;98438.97;;;8.95;87.66
17072;BME280;7731;50.720;6.912;2023-01-09T11:30:17;98447.06;;;8.89;85.96
17072;BME280;7731;50.720;6.912;2023-01-09T11:32:53;98442.31;;;9.08;87.21
17072;BME280;7731;50.720;6.912;2023-01-09T11:35:29;98447.16;;;9.00;86.15
17072;BME280;7731;50.720;6.912;2023-01-09T11:38:06;98451.03;;;9.06;89.18
17072;BME280;7731;50.720;6.912;2023-01-09T11:40:47;98461.16;;;9.07;86.81
17072;BME280;7731;50.720;6.912;2023-01-09T11:43:26;98461.75;;;8.87;87.49
17072;BME280;7731;50.720;6.912;2023-01-09T11:46:03;98463.81;;;8.82;88.15
17072;BME280;7731;50.720;6.912;2023-01-09T11:48:39;98467.06;;;8.84;87.89
17072;BME280;7731;50.720;6.912;2023-01-09T11:51:23;98473.22;;;8.94;89.07
17072;BME280;7731;50.720;6.912;2023-01-09T11:54:24;98472.78;;;9.48;85.40
17072;BME280;7731;50.720;6.912;2023-01-09T11:56:57;98478.00;;;9.23;83.94
17072;BME280;7731;50.720;6.912;2023-01-09T11:59:30;98479.38;;;8.79;87.99
17072;BME280;7731;50.720;6.912;2023-01-09T12:02:33;98479.03;;;8.96;86.92
17072;BME280;7731;50.720;6.912;2023-01-09T12:05:22;98491.09;;;8.57;87.44
17072;BME280;7731;50.720;6.912;2023-01-09T12:08:19;98493.72;;;8.68;89.57
17072;BME280;7731;50.720;6.912;2023-01-09T12:11:20;98491.78;;;8.85;87.77
17072;BME280;7731;50.720;6.912;2023-01-09T12:14:16;98491.78;;;8.72;89.96
17072;BME280;7731;50.720;6.912;2023-01-09T12:17:10;98497.66;;;8.48;89.90
17072;BME280;7731;50.720;6.912;2023-01-09T12:20:18;98490.22;;;8.82;90.72
17072;BME280;7731;50.720;6.912;2023-01-09T12:23:10;98490.69;;;8.63;92.96
17072;BME280;7731;50.720;6.912;2023-01-09T12:25:53;98493.13;;;8.65;92.90
17072;BME280;7731;50.720;6.912;2023-01-09T12:28:57;98495.75;;;8.12;92.01
17072;BME280;7731;50.720;6.912;2023-01-09T12:31:56;98506.03;;;7.84;90.05
17072;BME280;7731;50.720;6.912;2023-01-09T12:34:50;98512.22;;;7.67;91.07
17072;BME280;7731;50.720;6.912;2023-01-09T12:38:10;98515.38;;;7.98;90.17
17072;BME280;7731;50.720;6.912;2023-01-09T12:41:16;98529.19;;;7.96;89.46
17072;BME280;7731;50.720;6.912;2023-01-09T12:44:28;98516.31;;;7.97;88.56
17072;BME280;7731;50.720;6.912;2023-01-09T12:47:40;98524.56;;;7.88;88.94
17072;BME280;7731;50.720;6.912;2023-01-09T12:51:12;98517.22;;;8.49;86.37
17072;BME280;7731;50.720;6.912;2023-01-09T12:53:57;98519.91;;;8.33;87.92
17072;BME280;7731;50.720;6.912;2023-01-09T12:56:34;98516.03;;;8.40;87.37
17072;BME280;7731;50.720;6.912;2023-01-09T12:59:21;98507.78;;;9.13;81.75
17072;BME280;7731;50.720;6.912;2023-01-09T13:02:05;98526.63;;;9.11;80.74
17072;BME280;7731;50.720;6.912;2023-01-09T13:04:50;98527.91;;;8.93;80.87
17072;BME280;7731;50.720;6.912;2023-01-09T13:07:28;98533.47;;;9.24;84.00
17072;BME280;7731;50.720;6.912;2023-01-09T13:10:17;98536.59;;;9.40;79.18
17072;BME280;7731;50.720;6.912;2023-01-09T13:12:49;98537.75;;;9.36;80.74
17072;BME280;7731;50.720;6.912;2023-01-09T13:15:29;98548.00;;;8.73;83.40
17072;BME280;7731;50.720;6.912;2023-01-09T13:18:09;98542.25;;;8.96;82.89
17072;BME280;7731;50.720;6.912;2023-01-09T13:20:46;98548.69;;;9.01;82.18
17072;BME280;7731;50.720;6.912;2023-01-09T13:23:29;98558.81;;;8.38;86.69
17072;BME280;7731;50.720;6.912;2023-01-09T13:26:04;98557.16;;;8.25;88.73
17072;BME280;7731;50.720;6.912;2023-01-09T13:28:40;98552.94;;;8.51;87.80
17072;BME280;7731;50.720;6.912;2023-01-09T13:31:49;98556.00;;;8.56;86.31
17072;BME280;7731;50.720;6.912;2023-01-09T13:34:26;98574.44;;;8.74;86.70
17072;BME280;7731;50.720;6.912;2023-01-09T13:36:59;98577.09;;;8.47;87.42
17072;BME280;7731;50.720;6.912;2023-01-09T13:39:32;98572.50;;;8.25;89.50
17072;BME280;7731;50.720;6.912;2023-01-09T13:42:17;98576.22;;;8.33;90.84
17072;BME280;7731;50.720;6.912;2023-01-09T13:45:18;98578.47;;;8.38;89.51
17072;BME280;7731;50.720;6.912;2023-01-09T13:48:24;98583.97;;;8.32;88.94
17072;BME280;7731;50.720;6.912;2023-01-09T13:51:36;98589.47;;;8.13;88.47
17072;BME280;7731;50.720;6.912;2023-01-09T13:54:08;98598.88;;;8.12;89.92
17072;BME280;7731;50.720;6.912;2023-01-09T13:57:18;98601.72;;;8.08;91.99
17072;BME280;7731;50.720;6.912;2023-01-09T14:02:56;98603.78;;;8.02;92.04
17072;BME280;7731;50.720;6.912;2023-01-09T14:06:13;98611.34;;;7.77;94.17
17072;BME280;7731;50.720;6.912;2023-01-09T14:08:47;98616.13;;;7.68;93.81
17072;BME280;7731;50.720;6.912;2023-01-09T14:11:23;98627.41;;;7.79;94.52
17072;BME280;7731;50.720;6.912;2023-01-09T14:14:27;98629.94;;;7.93;95.96
17072;BME280;7731;50.720;6.912;2023-01-09T14:17:00;98636.88;;;7.91;94.61